Home > Products > Valid Products > TAF

000
FTUS44 KJAN 210500
TAFMEI
TAF
KMEI 210520Z 2106/2206 00000KT P6SM SKC
      TEMPO 2110/2113 4SM BR
     FM211400 01005KT P6SM SKC=



000
FTUS44 KJAN 210500
TAFHBG
TAF
KHBG 210520Z 2106/2206 35004KT P6SM SKC=



000
FTUS44 KJAN 210500
TAFJAN
TAF
KJAN 210520Z 2106/2206 01004KT P6SM SKC=



000
FTUS44 KJAN 210500
TAFGLH
TAF
KGLH 210520Z 2106/2206 00000KT P6SM SKC
     FM211500 35006KT P6SM SKC=



000
FTUS44 KJAN 210500
TAFGWO
TAF
KGWO 210520Z 2106/2206 00000KT P6SM SKC
      TEMPO 2110/2113 4SM BR
     FM211400 35005KT P6SM SKC=



000
FTUS44 KJAN 202300
TAFHBG
TAF
KHBG 202320Z 2100/2124 35003KT P6SM SCT250=



000
FTUS44 KJAN 202300
TAFMEI
TAF
KMEI 202320Z 2100/2124 35005KT P6SM SCT250=



000
FTUS44 KJAN 202300
TAFJAN
TAF
KJAN 202320Z 2100/2124 36004KT P6SM SCT250=



000
FTUS44 KJAN 202300
TAFGWO
TAF
KGWO 202320Z 2100/2124 00000KT P6SM SCT250
     FM211500 01006KT P6SM SCT100=



000
FTUS44 KJAN 202300
TAFGLH
TAF
KGLH 202320Z 2100/2124 33003KT P6SM SCT250=



000
FTUS44 KJAN 201700
TAFGWO
TAF
KGWO 201720Z 2018/2118 00000KT P6SM BKN250
     FM211200 00000KT P6SM OVC050
     FM211500 02004KT P6SM SCT100 BKN250=



000
FTUS44 KJAN 201700
TAFJAN
TAF
KJAN 201720Z 2018/2118 36004KT P6SM SCT250=



000
FTUS44 KJAN 201700
TAFHBG
TAF
KHBG 201720Z 2018/2118 34003KT P6SM SCT250=



000
FTUS44 KJAN 201700
TAFMEI
TAF
KMEI 201720Z 2018/2118 35005KT P6SM SCT250=



000
FTUS44 KJAN 201700
TAFGLH
TAF
KGLH 201720Z 2018/2118 00000KT P6SM BKN250
     FM211200 00000KT P6SM OVC050
     FM211500 02004KT P6SM SCT100 BKN250=



000
FTUS44 KJAN 201200 AAA
TAFGLH
TAF AMD
KGLH 201255Z 2013/2112 00000KT 3SM BR FEW002
     FM201400 32003KT P6SM SKC=



000
FTUS44 KJAN 201200 AAB
TAFMEI
TAF AMD
KMEI 201216Z 2012/2112 35005KT P6SM SCT002=



000
FTUS44 KJAN 201100 CCA
TAFMEI
TAF COR
KMEI 201159Z 2012/2112 34004KT P6SM BKN002
     FM201400 35005KT P6SM SCT002=



000
FTUS44 KJAN 201100 AAA
TAFMEI
TAF AMD
KMEI 201154Z 2012/2112 34004KT P6SM BKN002
     FM201400 35005KT P6SM SCT002=



000
FTUS44 KJAN 201100
TAFGLH
TAF
KGLH 201133Z 2012/2112 00000KT 1SM BR VV002
     FM201400 32003KT P6SM SKC=



000
FTUS44 KJAN 201100
TAFMEI
TAF
KMEI 201133Z 2012/2112 34004KT P6SM SKC=



000
FTUS44 KJAN 201100
TAFHBG
TAF
KHBG 201133Z 2012/2112 34003KT P6SM SKC=



000
FTUS44 KJAN 201100
TAFGWO
TAF
KGWO 201133Z 2012/2112 VRB03KT P6SM SKC=



000
FTUS44 KJAN 201100
TAFJAN
TAF
KJAN 201133Z 2012/2112 36004KT P6SM SKC=



000
FTUS44 KJAN 200900 AAB
TAFGLH
TAF AMD
KGLH 200933Z 2010/2106 00000KT 2SM BR BKN002
     FM201400 00000KT 3SM BR SKC
     FM201600 30003KT P6SM SKC=



000
FTUS44 KJAN 200800 AAA
TAFGLH
TAF AMD
KGLH 200841Z 2009/2106 00000KT 1SM BR VV001
     FM201300 00000KT 3SM BR SKC
     FM201600 00000KT P6SM SKC=



000
FTUS44 KJAN 200500
TAFGLH
TAF
KGLH 200525Z 2006/2106 00000KT P6SM SKC=



000
FTUS44 KJAN 200500
TAFMEI
TAF
KMEI 200525Z 2006/2106 00000KT P6SM SKC
     FM201100 00000KT 4SM BR SKC
     FM201400 00000KT P6SM SKC=



000
FTUS44 KJAN 200500
TAFGWO
TAF
KGWO 200525Z 2006/2106 00000KT P6SM SKC=



000
FTUS44 KJAN 200500
TAFHBG
TAF
KHBG 200525Z 2006/2106 00000KT P6SM SKC=



000
FTUS44 KJAN 200500
TAFJAN
TAF
KJAN 200525Z 2006/2106 00000KT P6SM SKC=



000
FTUS44 KJAN 192300
TAFHBG
TAF
KHBG 192320Z 2000/2024 02003KT P6SM SKC=



000
FTUS44 KJAN 192300
TAFMEI
TAF
KMEI 192320Z 2000/2024 02003KT P6SM SKC=



000
FTUS44 KJAN 192300
TAFJAN
TAF
KJAN 192320Z 2000/2024 02003KT P6SM SKC=



000
FTUS44 KJAN 192300
TAFGWO
TAF
KGWO 192320Z 2000/2024 02003KT P6SM SKC=



000
FTUS44 KJAN 192300
TAFGLH
TAF
KGLH 192320Z 2000/2024 05003KT P6SM SKC=



000
FTUS44 KJAN 192300
TAFMEI
TAF
KMEI 192320Z 2000/2024 02003KT P6SM SKC=



000
FTUS44 KJAN 192300
TAFJAN
TAF
KJAN 192320Z 2000/2024 02003KT P6SM SKC=



000
FTUS44 KJAN 192300
TAFGWO
TAF
KGWO 192320Z 2000/2024 02003KT P6SM SKC=



000
FTUS44 KJAN 192300
TAFGLH
TAF
KGLH 192320Z 2000/2024 05003KT P6SM SKC=



000
FTUS44 KJAN 192300
TAFHBG
TAF
KHBG 192320Z 2000/2024 02003KT P6SM SKC=



000
FTUS44 KJAN 191700
TAFHBG
TAF
KHBG 191723Z 1918/2018 05006KT P6SM SKC=



000
FTUS44 KJAN 191700
TAFMEI
TAF
KMEI 191723Z 1918/2018 03007KT P6SM SKC=



000
FTUS44 KJAN 191700
TAFGLH
TAF
KGLH 191723Z 1918/2018 03008KT P6SM SKC=



000
FTUS44 KJAN 191700
TAFJAN
TAF
KJAN 191723Z 1918/2018 03007KT P6SM SKC=



000
FTUS44 KJAN 191700
TAFGWO
TAF
KGWO 191723Z 1918/2018 02006KT P6SM SKC=



000
FTUS44 KJAN 191100
TAFGWO
TAF
KGWO 191120Z 1912/2012 01004KT P6SM SKC=



000
FTUS44 KJAN 191100
TAFHBG
TAF
KHBG 191120Z 1912/2012 36005KT P6SM SKC=



000
FTUS44 KJAN 191100
TAFGLH
TAF
KGLH 191120Z 1912/2012 02006KT P6SM SKC=



000
FTUS44 KJAN 191100
TAFJAN
TAF
KJAN 191120Z 1912/2012 35004KT P6SM SKC=



000
FTUS44 KJAN 191100
TAFMEI
TAF
KMEI 191120Z 1912/2012 36004KT P6SM SKC=



000
FTUS44 KJAN 191000 AAA
TAFGWO
TAF AMD
KGWO 191058Z 1911/2006 04006KT 4SM BR SKC
     FM191400 04007KT P6SM SKC=



000
FTUS44 KJAN 190500
TAFGWO
TAF
KGWO 190520Z 1906/2006 01004KT P6SM SKC=



000
FTUS44 KJAN 190500
TAFMEI
TAF
KMEI 190520Z 1906/2006 36004KT P6SM SKC=



000
FTUS44 KJAN 190500
TAFJAN
TAF
KJAN 190520Z 1906/2006 35004KT P6SM SKC=



000
FTUS44 KJAN 190500
TAFGLH
TAF
KGLH 190520Z 1906/2006 02006KT P6SM SKC=



000
FTUS44 KJAN 190500
TAFHBG
TAF
KHBG 190520Z 1906/2006 36005KT P6SM SKC=



000
FTUS44 KJAN 182300
TAFHBG
TAF
KHBG 182327Z 1900/1924 35005KT P6SM SKC=



000
FTUS44 KJAN 182300
TAFJAN
TAF
KJAN 182327Z 1900/1924 36005KT P6SM FEW200=



000
FTUS44 KJAN 182300
TAFMEI
TAF
KMEI 182327Z 1900/1924 35005KT P6SM SKC=



000
FTUS44 KJAN 182300
TAFGWO
TAF
KGWO 182327Z 1900/1924 36004KT P6SM SCT250=



000
FTUS44 KJAN 182300
TAFGLH
TAF
KGLH 182327Z 1900/1924 01006KT P6SM SCT250=



000
FTUS44 KJAN 181700
TAFJAN
TAF
KJAN 181720Z 1818/1918 36005KT P6SM SKC=



000
FTUS44 KJAN 181700
TAFGWO
TAF
KGWO 181720Z 1818/1918 36008KT P6SM SCT250=



000
FTUS44 KJAN 181700
TAFGLH
TAF
KGLH 181720Z 1818/1918 36010KT P6SM SCT250=



000
FTUS44 KJAN 181700
TAFHBG
TAF
KHBG 181720Z 1818/1918 33006KT P6SM SKC=



000
FTUS44 KJAN 181700
TAFMEI
TAF
KMEI 181720Z 1818/1918 35005KT P6SM SKC=



000
FTUS44 KJAN 181200 AAD
TAFJAN
TAF AMD
KJAN 181259Z 1813/1912 36005KT P6SM SKC=



000
FTUS44 KJAN 181200 AAC
TAFJAN
TAF AMD
KJAN 181249Z 1813/1912 36005KT 4SM BR SKC
     FM181400 35005KT P6SM SKC=



000
FTUS44 KJAN 181200 AAB
TAFJAN
TAF AMD
KJAN 181227Z 1812/1912 36005KT 1SM BR SKC
     FM181400 35005KT P6SM SKC=



000
FTUS44 KJAN 181100 AAA
TAFJAN
TAF AMD
KJAN 181159Z 1812/1912 36005KT 2SM BR SKC
     FM181400 35005KT P6SM SKC=



000
FTUS44 KJAN 181100
TAFJAN
TAF
KJAN 181122Z 1812/1912 36005KT P6SM SKC=



000
FTUS44 KJAN 181100
TAFHBG
TAF
KHBG 181122Z 1812/1912 00000KT P6SM SKC
     FM181400 33006KT P6SM SKC=



000
FTUS44 KJAN 181100
TAFGLH
TAF
KGLH 181122Z 1812/1912 36010KT P6SM SCT250=



000
FTUS44 KJAN 181100
TAFMEI
TAF
KMEI 181122Z 1812/1912 35005KT P6SM SKC=



000
FTUS44 KJAN 181100
TAFGWO
TAF
KGWO 181122Z 1812/1912 36008KT P6SM SCT250=



000
FTUS44 KJAN 181100
TAFGWO
TAF
KGWO 181122Z 1812/1912 36008KT P6SM SCT250=



000
FTUS44 KJAN 181100
TAFMEI
TAF
KMEI 181122Z 1812/1912 35005KT P6SM SKC=



000
FTUS44 KJAN 181100
TAFHBG
TAF
KHBG 181122Z 1812/1912 00000KT P6SM SKC
     FM181400 33006KT P6SM SKC=



000
FTUS44 KJAN 181100
TAFGLH
TAF
KGLH 181122Z 1812/1912 36010KT P6SM SCT250=



000
FTUS44 KJAN 181100
TAFJAN
TAF
KJAN 181122Z 1812/1912 36005KT P6SM SKC=



000
FTUS44 KJAN 180800 AAA
TAFGWO
TAF AMD
KGWO 180817Z 1808/1906 00000KT 1SM BR VV002
      TEMPO 1808/1812 1/4SM FG
     FM181300 36008KT P6SM SKC=



    US Dept of Commerce
    National Oceanic and Atmospheric Administration
    National Weather Service
    1325 East West Highway
    Silver Spring, MD 20910
    Page Author: NWS Internet Services Team
Disclaimer
Information Quality
Credits
Glossary
Privacy Policy
Freedom of Information Act (FOIA)
About Us
Career Opportunities